Time;durP1;ratioP1;P1;durP2;ratioP2;P2;SDS_P1;SDS_P2;PMS_P1;PMS_P2;Temp;Humidity;BMP_temperature;BMP_pressure;BME280_temperature;BME280_humidity;BME280_pressure;Samples;Min_cycle;Max_cycle;Signal;HPM_P1;HPM_P2
2021/01/18 00:01:16;;;;;;;;;;;;;;;18.74;50.78;101351.31;5093392;28;1591;-61
2021/01/18 00:03:42;;;;;;;;;;;;;;;18.74;50.17;101356.69;5075546;28;1540;-69
2021/01/18 00:06:08;;;;;;;;;;;;;;;18.73;50.29;101349.63;5093669;28;1901;-61
2021/01/18 00:08:33;;;;;;;;;;;;;;;18.71;50.17;101351.56;5093713;28;1600;-61
2021/01/18 00:10:58;;;;;;;;;;;;;;;18.71;50.49;101362.28;5082437;28;1599;-61
2021/01/18 00:13:24;;;;;;;;;;;;;;;18.64;50.49;101354.72;5108710;28;1634;-61
2021/01/18 00:15:49;;;;;;;;;;;;;;;18.68;50.03;101369.59;5103173;28;1555;-68
2021/01/18 00:18:14;;;;;;;;;;;;;;;18.78;50.27;101368.84;5102798;28;1578;-68
2021/01/18 00:20:40;;;;;;;;;;;;;;;18.75;50.02;101372.63;5103498;28;1559;-61
2021/01/18 00:23:05;;;;;;;;;;;;;;;18.76;50.31;101377.03;5094746;28;1539;-61
2021/01/18 00:25:30;;;;;;;;;;;;;;;18.84;50.46;101366.59;5089587;28;1985;-61
2021/01/18 00:27:56;;;;;;;;;;;;;;;18.88;50.41;101375.25;5079491;28;1524;-68
2021/01/18 00:30:22;;;;;;;;;;;;;;;18.92;50.04;101376.72;5108029;28;1567;-62
2021/01/18 00:32:48;;;;;;;;;;;;;;;18.89;50.67;101376.94;5105871;28;1468;-66
2021/01/18 00:35:14;;;;;;;;;;;;;;;18.92;50.18;101387.44;5102770;28;1559;-68
2021/01/18 00:37:47;;;;;;;;;;;;;;;18.85;50.54;101376.34;5110136;28;1472;-68
2021/01/18 00:40:13;;;;;;;;;;;;;;;18.87;50.72;101378.91;5089374;28;1230;-68
2021/01/18 00:42:40;;;;;;;;;;;;;;;18.95;50.32;101389.88;5101570;28;1670;-62
2021/01/18 00:45:05;;;;;;;;;;;;;;;18.88;50.13;101380.63;5083732;28;11013;-61
2021/01/18 00:47:31;;;;;;;;;;;;;;;18.85;50.78;101386.22;5087520;28;1470;-68
2021/01/18 00:49:57;;;;;;;;;;;;;;;18.81;51.27;101385.59;5086350;28;1430;-61
2021/01/18 00:52:22;;;;;;;;;;;;;;;18.79;50.66;101386.66;5105339;28;1495;-70
2021/01/18 00:54:47;;;;;;;;;;;;;;;18.73;51.63;101379.94;5109548;28;1441;-62
2021/01/18 00:57:13;;;;;;;;;;;;;;;18.69;51.80;101389.19;5083390;28;1547;-61
2021/01/18 00:59:38;;;;;;;;;;;;;;;18.66;52.01;101384.06;5088092;28;1460;-61
2021/01/18 01:02:03;;;;;;;;;;;;;;;18.61;51.10;101391.59;5105063;28;1540;-61
2021/01/18 01:04:29;;;;;;;;;;;;;;;18.56;51.47;101391.97;5089315;28;1898;-61
2021/01/18 01:06:54;;;;;;;;;;;;;;;18.50;51.00;101387.06;5083034;28;1543;-62
2021/01/18 01:09:19;;;;;;;;;;;;;;;18.47;51.64;101392.66;5110256;28;1619;-61
2021/01/18 01:11:45;;;;;;;;;;;;;;;18.40;51.94;101396.75;5096735;28;1571;-61
2021/01/18 01:14:11;;;;;;;;;;;;;;;18.39;50.98;101392.41;5085873;28;1414;-68
2021/01/18 01:16:37;;;;;;;;;;;;;;;18.36;51.15;101400.66;5096200;28;1714;-66
2021/01/18 01:19:02;;;;;;;;;;;;;;;18.27;51.46;101395.03;5096665;28;1480;-61
2021/01/18 01:21:28;;;;;;;;;;;;;;;18.23;51.02;101385.50;5096658;28;1409;-61
2021/01/18 01:23:53;;;;;;;;;;;;;;;18.14;51.64;101386.19;5078264;28;1603;-68
2021/01/18 01:26:18;;;;;;;;;;;;;;;18.11;51.02;101389.13;5077794;28;2025;-61
2021/01/18 01:28:45;;;;;;;;;;;;;;;18.08;51.47;101383.97;5096209;28;1579;-63
2021/01/18 01:31:10;;;;;;;;;;;;;;;18.03;51.81;101391.50;5076267;28;1567;-68
2021/01/18 01:33:35;;;;;;;;;;;;;;;17.99;51.67;101392.72;5095720;28;1627;-61
2021/01/18 01:36:01;;;;;;;;;;;;;;;17.94;51.57;101389.50;5078291;28;1579;-68
2021/01/18 01:38:27;;;;;;;;;;;;;;;17.81;51.61;101373.47;5095145;28;1504;-61
2021/01/18 01:40:52;;;;;;;;;;;;;;;17.79;51.70;101388.78;5096286;28;1635;-63
2021/01/18 01:43:17;;;;;;;;;;;;;;;17.73;51.79;101381.22;5095910;28;1615;-68
2021/01/18 01:45:43;;;;;;;;;;;;;;;17.66;51.27;101395.00;5096112;28;1894;-61
2021/01/18 01:48:08;;;;;;;;;;;;;;;17.59;50.76;101385.75;5077867;28;1552;-61
2021/01/18 01:50:35;;;;;;;;;;;;;;;17.53;51.72;101387.97;5095437;28;1575;-70
2021/01/18 01:53:23;;;;;;;;;;;;;;;17.47;51.04;101384.81;5078134;28;1548;-68
2021/01/18 01:55:50;;;;;;;;;;;;;;;17.42;51.23;101380.75;5071777;28;1525;-68
2021/01/18 01:58:15;;;;;;;;;;;;;;;17.41;51.36;101371.88;5076747;28;1489;-68
2021/01/18 02:00:41;;;;;;;;;;;;;;;17.44;51.26;101381.50;5095778;28;1527;-62
2021/01/18 02:03:07;;;;;;;;;;;;;;;17.41;51.43;101376.38;5077674;28;1472;-68
2021/01/18 02:05:32;;;;;;;;;;;;;;;17.45;50.65;101373.38;5074543;28;1901;-68
2021/01/18 02:08:02;;;;;;;;;;;;;;;17.48;51.42;101378.47;5073862;28;1564;-68
2021/01/18 02:10:28;;;;;;;;;;;;;;;17.42;50.86;101370.06;5079232;28;1286;-61
2021/01/18 02:12:54;;;;;;;;;;;;;;;17.40;50.77;101374.66;5089916;28;1488;-68
2021/01/18 02:15:22;;;;;;;;;;;;;;;17.39;50.67;101378.28;5087097;28;1547;-61
2021/01/18 02:18:03;;;;;;;;;;;;;;;17.34;51.57;101370.59;5101666;28;1355;-68
2021/01/18 02:20:47;;;;;;;;;;;;;;;17.34;51.64;101381.28;5104036;28;1548;-61
2021/01/18 02:23:32;;;;;;;;;;;;;;;17.32;52.24;101377.03;5104596;28;1456;-68
2021/01/18 02:26:02;;;;;;;;;;;;;;;17.27;51.88;101380.03;5084622;28;1910;-61
2021/01/18 02:28:32;;;;;;;;;;;;;;;17.25;53.76;101382.81;5069142;28;1593;-69
2021/01/18 02:31:01;;;;;;;;;;;;;;;17.33;53.16;101382.28;5091251;28;1668;-61
2021/01/18 02:33:40;;;;;;;;;;;;;;;17.32;54.53;101393.91;5099053;28;1919;-61
2021/01/18 02:36:13;;;;;;;;;;;;;;;17.36;53.85;101398.06;5095446;28;1789;-68
2021/01/18 02:38:54;;;;;;;;;;;;;;;17.28;54.25;101397.78;5097579;28;1617;-63
2021/01/18 02:41:22;;;;;;;;;;;;;;;17.30;54.59;101407.38;5105484;28;1682;-68
2021/01/18 02:43:50;;;;;;;;;;;;;;;17.27;54.16;101402.28;5105144;28;1473;-68
2021/01/18 02:46:17;;;;;;;;;;;;;;;17.27;53.61;101401.44;5115375;28;1885;-68
2021/01/18 02:48:42;;;;;;;;;;;;;;;17.25;53.81;101406.03;5099129;28;1576;-68
2021/01/18 02:51:09;;;;;;;;;;;;;;;17.22;53.76;101399.06;5075842;28;1691;-62
2021/01/18 02:53:34;;;;;;;;;;;;;;;17.21;54.59;101402.72;5066844;28;1613;-61
2021/01/18 02:56:00;;;;;;;;;;;;;;;17.18;54.54;101396.72;5083219;28;1759;-68
2021/01/18 02:58:27;;;;;;;;;;;;;;;17.18;54.83;101399.38;5084178;28;1732;-68
2021/01/18 03:01:08;;;;;;;;;;;;;;;17.15;54.05;101391.56;5091591;23;1995;-55
2021/01/18 03:03:53;;;;;;;;;;;;;;;17.16;54.70;101412.84;5079273;28;1730;-54
2021/01/18 03:06:44;;;;;;;;;;;;;;;17.10;54.81;101418.63;5076612;28;1926;-55
2021/01/18 03:09:23;;;;;;;;;;;;;;;17.15;54.52;101407.59;5080201;28;1695;-55
2021/01/18 03:11:54;;;;;;;;;;;;;;;17.14;54.38;101411.25;5089022;23;3515;-62
2021/01/18 03:14:20;;;;;;;;;;;;;;;17.08;53.65;101402.69;5073744;28;1675;-68
2021/01/18 03:16:46;;;;;;;;;;;;;;;17.09;54.23;101407.09;5073271;28;1680;-63
2021/01/18 03:19:13;;;;;;;;;;;;;;;17.10;53.88;101400.78;5073816;28;1766;-68
2021/01/18 03:21:45;;;;;;;;;;;;;;;17.10;54.44;101403.44;5056474;28;1707;-61
2021/01/18 03:24:11;;;;;;;;;;;;;;;17.08;53.80;101386.66;5073803;28;1974;-62
2021/01/18 03:26:36;;;;;;;;;;;;;;;17.10;53.78;101400.78;5073655;28;1762;-62
2021/01/18 03:29:01;;;;;;;;;;;;;;;16.87;55.04;101394.38;5073852;28;1727;-66
2021/01/18 03:31:27;;;;;;;;;;;;;;;16.74;55.90;101397.97;5073810;28;1810;-66
2021/01/18 03:33:52;;;;;;;;;;;;;;;16.65;56.24;101400.31;5056208;28;1743;-62
2021/01/18 03:36:18;;;;;;;;;;;;;;;16.63;56.57;101391.56;5073506;28;1735;-68
2021/01/18 03:38:43;;;;;;;;;;;;;;;16.56;57.57;101392.91;5074046;28;1739;-68
2021/01/18 03:41:10;;;;;;;;;;;;;;;16.50;57.06;101394.19;5073525;28;1767;-68
2021/01/18 03:43:35;;;;;;;;;;;;;;;16.53;57.96;101395.78;5073032;28;1810;-68
2021/01/18 03:46:01;;;;;;;;;;;;;;;16.53;58.34;101409.13;5056191;28;1893;-62
2021/01/18 03:48:26;;;;;;;;;;;;;;;16.47;57.95;101398.88;5055754;28;1660;-68
2021/01/18 03:50:51;;;;;;;;;;;;;;;16.49;58.85;101399.63;5074182;28;1809;-68
2021/01/18 03:53:17;;;;;;;;;;;;;;;16.44;58.08;101399.94;5073707;28;1751;-62
2021/01/18 03:55:42;;;;;;;;;;;;;;;16.42;58.99;101398.34;5073502;28;1877;-62
2021/01/18 03:58:08;;;;;;;;;;;;;;;16.39;59.49;101402.03;5077145;28;1845;-69
2021/01/18 04:00:34;;;;;;;;;;;;;;;16.38;59.60;101388.81;5077528;28;1805;-62
2021/01/18 04:03:00;;;;;;;;;;;;;;;16.38;59.06;101404.84;5069029;28;1629;-61
2021/01/18 04:05:26;;;;;;;;;;;;;;;16.36;59.21;101401.44;5065683;28;1975;-66
2021/01/18 04:07:52;;;;;;;;;;;;;;;16.30;59.83;101395.53;5069659;28;1798;-68
2021/01/18 04:10:19;;;;;;;;;;;;;;;16.32;58.77;101405.25;5067712;28;1790;-68
2021/01/18 04:12:45;;;;;;;;;;;;;;;16.29;59.25;101403.63;5057743;28;1858;-69
2021/01/18 04:15:12;;;;;;;;;;;;;;;16.27;59.08;101406.41;5047073;28;1709;-61
2021/01/18 04:17:41;;;;;;;;;;;;;;;16.23;58.98;101399.53;5049429;28;1895;-64
2021/01/18 04:20:06;;;;;;;;;;;;;;;16.25;59.28;101413.69;5066154;28;1736;-68
2021/01/18 04:22:32;;;;;;;;;;;;;;;16.25;58.31;101416.34;5048859;28;1672;-69
2021/01/18 04:24:57;;;;;;;;;;;;;;;16.25;58.28;101419.00;5044690;28;1918;-69
2021/01/18 04:27:22;;;;;;;;;;;;;;;16.22;58.82;101413.00;5068266;28;1630;-62
2021/01/18 04:29:48;;;;;;;;;;;;;;;16.22;57.89;101413.84;5046993;28;1755;-62
2021/01/18 04:32:13;;;;;;;;;;;;;;;16.23;57.73;101406.72;5066797;28;1903;-61
2021/01/18 04:34:39;;;;;;;;;;;;;;;16.21;58.41;101412.13;5052131;28;1724;-68
2021/01/18 04:37:04;;;;;;;;;;;;;;;16.18;58.69;101404.34;5065808;28;1811;-68
2021/01/18 04:39:29;;;;;;;;;;;;;;;16.19;58.44;101419.38;5048898;28;1677;-67
2021/01/18 04:41:57;;;;;;;;;;;;;;;16.20;58.53;101418.44;5062541;28;1732;-68
2021/01/18 04:44:22;;;;;;;;;;;;;;;16.19;57.83;101406.03;5064504;28;1878;-61
2021/01/18 04:46:48;;;;;;;;;;;;;;;16.19;57.89;101422.06;5068560;28;1826;-68
2021/01/18 04:49:14;;;;;;;;;;;;;;;16.17;58.51;101421.31;5062717;28;1791;-61
2021/01/18 04:51:50;;;;;;;;;;;;;;;16.19;57.47;101421.22;5069099;28;1756;-62
2021/01/18 04:54:16;;;;;;;;;;;;;;;16.12;57.52;101419.91;5064945;28;1736;-68
2021/01/18 04:57:00;;;;;;;;;;;;;;;16.09;58.22;101427.16;5065141;28;1743;-68
2021/01/18 04:59:28;;;;;;;;;;;;;;;16.11;58.38;101443.06;5069368;28;1593;-68
2021/01/18 05:02:05;;;;;;;;;;;;;;;16.06;57.76;101430.03;5066882;28;1645;-61
2021/01/18 05:04:36;;;;;;;;;;;;;;;16.04;58.15;101441.75;5046131;28;1964;-69
2021/01/18 05:07:02;;;;;;;;;;;;;;;16.03;57.82;101440.03;5062805;28;1660;-61
2021/01/18 05:09:29;;;;;;;;;;;;;;;16.01;57.76;101433.94;5044184;28;1897;-62
2021/01/18 05:11:56;;;;;;;;;;;;;;;16.01;57.84;101436.59;5072010;28;1822;-68
2021/01/18 05:14:21;;;;;;;;;;;;;;;16.00;57.85;101441.09;5066639;28;1864;-61
2021/01/18 05:16:57;;;;;;;;;;;;;;;15.97;57.62;101432.44;5063140;28;1755;-69
2021/01/18 05:19:23;;;;;;;;;;;;;;;15.97;57.43;101443.09;5069901;28;1815;-62
2021/01/18 05:21:50;;;;;;;;;;;;;;;15.98;58.22;101458.16;5062874;28;1780;-69
2021/01/18 05:24:17;;;;;;;;;;;;;;;15.98;58.39;101458.16;5066857;28;1910;-61
2021/01/18 05:26:42;;;;;;;;;;;;;;;15.93;58.48;101449.59;5053562;28;1677;-62
2021/01/18 05:29:08;;;;;;;;;;;;;;;15.93;58.44;101460.25;5061910;28;1838;-69
2021/01/18 05:31:34;;;;;;;;;;;;;;;15.91;57.67;101453.19;5070017;28;1814;-62
2021/01/18 05:34:01;;;;;;;;;;;;;;;15.91;58.41;101458.53;5044739;28;1743;-61
2021/01/18 05:36:32;;;;;;;;;;;;;;;15.91;57.93;101455.88;5049324;28;1653;-66
2021/01/18 05:39:06;;;;;;;;;;;;;;;15.91;58.19;101465.69;5048590;28;1700;-69
2021/01/18 05:41:32;;;;;;;;;;;;;;;15.94;58.33;101457.50;5055566;28;1789;-69
2021/01/18 05:44:00;;;;;;;;;;;;;;;15.91;57.67;101463.88;5044963;28;1629;-69
2021/01/18 05:46:26;;;;;;;;;;;;;;;15.92;58.10;101459.41;5064322;28;1890;-61
2021/01/18 05:48:52;;;;;;;;;;;;;;;15.88;57.52;101465.91;5058262;28;1776;-67
2021/01/18 05:51:19;;;;;;;;;;;;;;;15.88;57.98;101458.75;5047575;28;1665;-69
2021/01/18 05:53:44;;;;;;;;;;;;;;;15.90;58.32;101462.16;5067432;28;1798;-69
2021/01/18 05:56:17;;;;;;;;;;;;;;;15.91;57.78;101468.34;5059316;28;1771;-61
2021/01/18 05:58:44;;;;;;;;;;;;;;;15.89;58.32;101475.59;5044307;28;1534;-69
2021/01/18 06:01:09;;;;;;;;;;;;;;;15.89;57.85;101478.25;5067202;28;1728;-63
2021/01/18 06:03:35;;;;;;;;;;;;;;;15.91;59.20;101474.53;5062848;28;1744;-69
2021/01/18 06:06:00;;;;;;;;;;;;;;;16.05;58.59;101480.81;5042461;28;1973;-69
2021/01/18 06:08:26;;;;;;;;;;;;;;;16.05;58.78;101475.47;5063513;28;1739;-60
2021/01/18 06:10:52;;;;;;;;;;;;;;;16.02;58.66;101486.34;5066080;28;1641;-68
2021/01/18 06:13:28;;;;;;;;;;;;;;;15.94;58.39;101486.00;5066682;28;1751;-62
2021/01/18 06:15:59;;;;;;;;;;;;;;;15.89;58.72;101489.78;5065710;28;1772;-68
2021/01/18 06:18:25;;;;;;;;;;;;;;;15.87;58.96;101493.50;5061975;28;1694;-62
2021/01/18 06:20:55;;;;;;;;;;;;;;;15.87;59.00;101496.16;5066752;28;1732;-63
2021/01/18 06:23:21;;;;;;;;;;;;;;;15.86;58.03;101511.31;5060601;28;11094;-65
2021/01/18 06:25:49;;;;;;;;;;;;;;;15.85;58.41;101504.25;5055229;28;1917;-69
2021/01/18 06:28:33;;;;;;;;;;;;;;;15.85;58.74;101509.59;5054060;28;1676;-62
2021/01/18 06:31:02;;;;;;;;;;;;;;;15.84;57.81;101505.22;5063667;28;1727;-62
2021/01/18 06:33:55;;;;;;;;;;;;;;;15.81;58.50;101500.06;5056045;28;1641;-68
2021/01/18 06:36:24;;;;;;;;;;;;;;;15.82;58.21;101501.81;5060276;28;1742;-69
2021/01/18 06:38:59;;;;;;;;;;;;;;;15.81;58.62;101500.06;5055281;28;1219;-62
2021/01/18 06:41:29;;;;;;;;;;;;;;;15.81;58.75;101501.91;5055946;28;1474;-62
2021/01/18 06:43:54;;;;;;;;;;;;;;;15.83;58.71;101498.16;5035285;28;1688;-62
2021/01/18 06:46:24;;;;;;;;;;;;;;;15.80;57.91;101498.38;5018041;28;1959;-69
2021/01/18 06:48:51;;;;;;;;;;;;;;;15.88;58.25;101506.75;5051537;28;1309;-69
2021/01/18 06:51:23;;;;;;;;;;;;;;;15.89;58.98;101497.78;5111089;27;1405;-56
2021/01/18 06:53:50;;;;;;;;;;;;;;;15.90;58.09;101488.84;5144152;27;1273;-55
2021/01/18 06:56:15;;;;;;;;;;;;;;;15.88;58.59;101505.91;5108676;28;1857;-55
2021/01/18 06:58:49;;;;;;;;;;;;;;;15.91;59.23;101505.69;5091115;28;1930;-56
2021/01/18 07:01:22;;;;;;;;;;;;;;;15.88;59.27;101496.09;5089372;28;1642;-56
2021/01/18 07:03:53;;;;;;;;;;;;;;;15.99;58.67;101497.22;5089794;28;1395;-55
2021/01/18 07:06:27;;;;;;;;;;;;;;;15.97;59.74;101507.97;5087921;28;1792;-55
2021/01/18 07:08:56;;;;;;;;;;;;;;;15.90;59.95;101507.50;5089395;28;1936;-55
2021/01/18 07:11:22;;;;;;;;;;;;;;;15.91;60.53;101514.53;5089187;28;1832;-56
2021/01/18 07:13:49;;;;;;;;;;;;;;;15.94;61.04;101526.00;5088696;28;1573;-55
2021/01/18 07:16:16;;;;;;;;;;;;;;;15.91;60.40;101511.88;5089680;28;1617;-55
2021/01/18 07:18:45;;;;;;;;;;;;;;;15.99;60.60;101518.53;5090028;28;1849;-54
2021/01/18 07:21:11;;;;;;;;;;;;;;;15.99;60.99;101523.88;5090005;28;1709;-55
2021/01/18 07:23:38;;;;;;;;;;;;;;;15.98;60.45;101536.38;5089914;28;1856;-55
2021/01/18 07:26:14;;;;;;;;;;;;;;;15.94;60.80;101528.66;5092344;28;1755;-55
2021/01/18 07:28:41;;;;;;;;;;;;;;;15.90;61.49;101528.84;5089279;28;1882;-55
2021/01/18 07:31:06;;;;;;;;;;;;;;;15.97;61.07;101547.97;5089129;28;1966;-55
2021/01/18 07:33:32;;;;;;;;;;;;;;;16.13;59.81;101536.34;5088983;28;1916;-55
2021/01/18 07:35:57;;;;;;;;;;;;;;;16.39;58.30;101537.34;5089966;28;1943;-55
2021/01/18 07:38:27;;;;;;;;;;;;;;;16.55;58.73;101527.34;5090364;28;1966;-55
2021/01/18 07:41:07;;;;;;;;;;;;;;;16.78;58.09;101533.84;5088820;28;864;-55
2021/01/18 07:43:33;;;;;;;;;;;;;;;16.94;57.77;101531.06;5089612;28;1508;-56
2021/01/18 07:46:17;;;;;;;;;;;;;;;17.06;56.76;101516.84;5090028;28;1979;-55
2021/01/18 07:48:42;;;;;;;;;;;;;;;17.39;56.67;101518.19;5088178;28;1784;-55
2021/01/18 07:51:07;;;;;;;;;;;;;;;17.46;56.82;101519.44;5089721;28;1910;-55
2021/01/18 07:53:32;;;;;;;;;;;;;;;17.74;55.44;101527.34;5090302;28;826;-54
2021/01/18 07:56:02;;;;;;;;;;;;;;;17.82;55.66;101519.66;5090026;28;1563;-55
2021/01/18 07:58:29;;;;;;;;;;;;;;;17.89;55.87;101521.81;5089450;28;1867;-55
2021/01/18 08:01:05;;;;;;;;;;;;;;;18.02;55.28;101515.56;5086451;28;1897;-55
2021/01/18 08:03:30;;;;;;;;;;;;;;;18.15;54.67;101524.44;5075715;28;1694;-55
2021/01/18 08:06:01;;;;;;;;;;;;;;;18.29;54.66;101521.59;5075752;28;1954;-55
2021/01/18 08:08:27;;;;;;;;;;;;;;;18.35;54.02;101527.47;5075319;28;1893;-55
2021/01/18 08:11:04;;;;;;;;;;;;;;;18.40;55.69;101536.00;5076255;28;1951;-55
2021/01/18 08:13:47;;;;;;;;;;;;;;;18.55;54.58;101545.59;5075929;28;1713;-55
2021/01/18 08:16:21;;;;;;;;;;;;;;;18.70;54.28;101540.91;5076302;28;793;-55
2021/01/18 08:19:00;;;;;;;;;;;;;;;18.94;53.21;101540.94;5075821;28;836;-54
2021/01/18 08:21:34;;;;;;;;;;;;;;;19.19;52.78;101537.22;5076263;28;837;-54
2021/01/18 08:24:00;;;;;;;;;;;;;;;19.23;53.33;101538.69;5075793;28;826;-55
2021/01/18 08:26:25;;;;;;;;;;;;;;;19.23;53.24;101525.28;5076088;28;1702;-54
2021/01/18 08:28:51;;;;;;;;;;;;;;;19.20;53.70;101530.03;5075832;28;801;-55
2021/01/18 08:31:16;;;;;;;;;;;;;;;19.07;54.26;101530.13;5075964;28;1897;-55
2021/01/18 08:33:41;;;;;;;;;;;;;;;19.01;54.08;101507.31;5076000;28;872;-55
2021/01/18 08:36:07;;;;;;;;;;;;;;;18.96;55.24;101517.56;5075502;28;903;-55
2021/01/18 08:38:32;;;;;;;;;;;;;;;18.93;54.91;101528.50;5075894;28;789;-54
2021/01/18 08:41:08;;;;;;;;;;;;;;;18.84;54.78;101511.31;5075800;28;860;-55
2021/01/18 08:43:49;;;;;;;;;;;;;;;18.86;55.22;101516.53;5075747;28;789;-55
2021/01/18 08:46:34;;;;;;;;;;;;;;;18.87;54.93;101512.91;5075124;28;880;-55
2021/01/18 08:49:18;;;;;;;;;;;;;;;18.86;55.34;101521.88;5074804;28;1965;-55
2021/01/18 08:51:44;;;;;;;;;;;;;;;18.78;55.12;101519.78;5075688;28;868;-55
2021/01/18 08:54:09;;;;;;;;;;;;;;;18.78;54.86;101509.06;5075405;28;833;-55
2021/01/18 08:56:37;;;;;;;;;;;;;;;18.72;55.08;101509.53;5075622;28;841;-55
2021/01/18 08:59:13;;;;;;;;;;;;;;;18.69;55.38;101529.34;5075284;28;1690;-54
2021/01/18 09:01:39;;;;;;;;;;;;;;;18.66;55.96;101526.03;5074285;28;1891;-55
2021/01/18 09:04:07;;;;;;;;;;;;;;;18.59;55.96;101514.94;5074771;28;2225;-55
2021/01/18 09:06:33;;;;;;;;;;;;;;;18.64;55.05;101514.59;5074592;28;1989;-54
2021/01/18 09:09:02;;;;;;;;;;;;;;;18.56;55.83;101517.88;5075363;28;1564;-55
2021/01/18 09:11:28;;;;;;;;;;;;;;;18.52;55.72;101513.66;5074001;28;1411;-55
2021/01/18 09:13:53;;;;;;;;;;;;;;;18.51;56.54;101509.31;5073179;28;1698;-55
2021/01/18 09:16:19;;;;;;;;;;;;;;;18.47;56.35;101523.88;5075243;28;1584;-55
2021/01/18 09:18:44;;;;;;;;;;;;;;;18.43;56.37;101503.66;5074719;28;871;-55
2021/01/18 09:21:09;;;;;;;;;;;;;;;18.44;56.60;101521.44;5073402;28;1628;-55
2021/01/18 09:23:35;;;;;;;;;;;;;;;18.36;56.63;101497.03;5073493;28;805;-55
2021/01/18 09:26:00;;;;;;;;;;;;;;;18.37;57.25;101504.13;5073430;28;1206;-55
2021/01/18 09:28:26;;;;;;;;;;;;;;;18.40;57.05;101503.88;5075002;28;863;-55
2021/01/18 09:30:51;;;;;;;;;;;;;;;18.36;56.71;101491.69;5074419;28;1952;-55
2021/01/18 09:33:16;;;;;;;;;;;;;;;18.39;56.52;101497.66;5074519;28;1736;-55
2021/01/18 09:35:42;;;;;;;;;;;;;;;18.42;56.97;101496.59;5074508;28;973;-55
2021/01/18 09:38:08;;;;;;;;;;;;;;;18.38;57.21;101485.28;5074585;28;923;-55
2021/01/18 09:40:38;;;;;;;;;;;;;;;18.38;56.75;101479.91;5074799;28;801;-55
2021/01/18 09:43:04;;;;;;;;;;;;;;;18.37;56.60;101478.19;5074339;28;919;-55
2021/01/18 09:45:29;;;;;;;;;;;;;;;18.36;57.41;101475.63;5075036;28;1615;-55
2021/01/18 09:47:59;;;;;;;;;;;;;;;18.37;56.70;101472.00;5073577;28;1880;-55
2021/01/18 09:50:25;;;;;;;;;;;;;;;18.40;56.40;101472.63;5073702;28;1985;-54
2021/01/18 09:52:53;;;;;;;;;;;;;;;18.41;56.24;101474.31;5073740;28;1902;-55
2021/01/18 09:55:19;;;;;;;;;;;;;;;18.39;57.06;101470.03;5073097;28;1932;-55
2021/01/18 09:57:48;;;;;;;;;;;;;;;18.39;57.04;101467.38;5073028;28;1875;-55
2021/01/18 10:00:14;;;;;;;;;;;;;;;18.42;56.76;101459.09;5074216;28;1619;-55
2021/01/18 10:02:40;;;;;;;;;;;;;;;18.44;56.67;101457.16;5073480;28;1803;-55
2021/01/18 10:05:06;;;;;;;;;;;;;;;18.43;56.89;101460.81;5073989;28;1594;-55
2021/01/18 10:07:33;;;;;;;;;;;;;;;18.44;56.78;101460.72;5074174;28;821;-55
2021/01/18 10:10:00;;;;;;;;;;;;;;;18.40;57.11;101447.63;5073595;28;1948;-55
2021/01/18 10:12:27;;;;;;;;;;;;;;;18.37;56.60;101461.28;5073651;28;1449;-55
2021/01/18 10:14:55;;;;;;;;;;;;;;;18.38;56.18;101446.91;5073611;28;1638;-55
2021/01/18 10:17:29;;;;;;;;;;;;;;;18.43;55.99;101450.09;5072977;28;1837;-54
2021/01/18 10:20:01;;;;;;;;;;;;;;;18.49;56.20;101433.56;5072986;28;1900;-54
2021/01/18 10:22:33;;;;;;;;;;;;;;;18.44;56.41;101441.97;5072135;28;1927;-54
2021/01/18 10:24:59;;;;;;;;;;;;;;;18.39;56.40;101437.91;5053736;28;852;-55
2021/01/18 10:27:28;;;;;;;;;;;;;;;18.32;56.81;101442.00;5060733;28;1822;-55
2021/01/18 10:30:13;;;;;;;;;;;;;;;18.31;56.47;101425.09;5073240;28;1906;-55
2021/01/18 10:32:45;;;;;;;;;;;;;;;18.24;56.02;101416.69;5070183;28;1813;-55
2021/01/18 10:35:18;;;;;;;;;;;;;;;18.25;56.42;101420.22;5073106;28;1962;-55
2021/01/18 10:37:43;;;;;;;;;;;;;;;18.31;56.40;101426.94;5073325;28;1899;-55
2021/01/18 10:40:11;;;;;;;;;;;;;;;18.32;56.61;101426.78;5073789;28;903;-55
2021/01/18 10:42:46;;;;;;;;;;;;;;;18.33;56.85;101425.84;5073876;28;1609;-55
2021/01/18 10:45:15;;;;;;;;;;;;;;;18.34;56.35;101407.94;5073465;28;982;-55
2021/01/18 10:47:40;;;;;;;;;;;;;;;18.34;56.49;101413.28;5073753;28;876;-55
2021/01/18 10:50:06;;;;;;;;;;;;;;;18.42;56.93;101397.50;5073294;28;1971;-54
2021/01/18 10:52:39;;;;;;;;;;;;;;;18.37;56.90;101403.22;5073698;28;904;-54
2021/01/18 10:55:05;;;;;;;;;;;;;;;18.41;56.76;101399.34;5073126;28;1709;-55
2021/01/18 10:57:30;;;;;;;;;;;;;;;18.39;57.35;101403.09;5073383;28;969;-55
2021/01/18 11:00:08;;;;;;;;;;;;;;;18.37;56.99;101402.38;5073520;28;816;-55
2021/01/18 11:02:33;;;;;;;;;;;;;;;18.40;56.95;101405.66;5073223;28;1469;-55
2021/01/18 11:04:59;;;;;;;;;;;;;;;18.42;56.53;101394.81;5073205;28;1660;-55
2021/01/18 11:07:25;;;;;;;;;;;;;;;18.42;56.62;101400.19;5073177;28;1330;-55
2021/01/18 11:09:54;;;;;;;;;;;;;;;18.51;56.76;101406.69;5073373;28;1945;-55
2021/01/18 11:12:27;;;;;;;;;;;;;;;18.45;56.19;101410.66;5073032;28;1452;-55
2021/01/18 11:14:57;;;;;;;;;;;;;;;18.50;55.90;101403.13;5072826;28;1644;-55
2021/01/18 11:17:26;;;;;;;;;;;;;;;18.51;55.95;101404.84;5073142;28;1294;-55
2021/01/18 11:19:51;;;;;;;;;;;;;;;18.47;56.66;101404.22;5073452;28;1335;-55
2021/01/18 11:22:16;;;;;;;;;;;;;;;18.43;56.03;101391.19;5073212;28;1440;-55
2021/01/18 11:24:42;;;;;;;;;;;;;;;18.38;56.42;101393.34;5074610;28;1406;-54
2021/01/18 11:27:07;;;;;;;;;;;;;;;18.40;56.70;101392.28;5067769;28;1598;-55
2021/01/18 11:29:32;;;;;;;;;;;;;;;18.46;56.12;101401.66;5072680;28;1901;-55
2021/01/18 11:31:57;;;;;;;;;;;;;;;18.46;55.82;101402.53;5072960;28;1433;-55
2021/01/18 11:34:22;;;;;;;;;;;;;;;18.44;55.97;101393.75;5071987;28;1652;-58
2021/01/18 11:36:48;;;;;;;;;;;;;;;18.48;56.40;101410.41;5060651;28;2647;-54
2021/01/18 11:39:14;;;;;;;;;;;;;;;18.44;56.22;101398.22;5066576;28;1582;-53
2021/01/18 11:41:39;;;;;;;;;;;;;;;18.42;56.30;101408.22;5068669;28;1760;-54
2021/01/18 11:44:06;;;;;;;;;;;;;;;18.46;56.76;101409.69;5064817;28;1567;-54
2021/01/18 11:46:33;;;;;;;;;;;;;;;18.44;56.40;101415.19;5060026;28;1913;-54
2021/01/18 11:48:58;;;;;;;;;;;;;;;18.39;56.83;101411.97;5062084;28;1551;-54
2021/01/18 11:51:23;;;;;;;;;;;;;;;18.43;56.86;101407.25;5060593;28;1959;-54
2021/01/18 11:53:49;;;;;;;;;;;;;;;18.38;56.40;101407.63;5058862;28;1539;-54
2021/01/18 11:56:16;;;;;;;;;;;;;;;18.35;56.98;101399.81;5060060;28;1481;-54
2021/01/18 11:58:42;;;;;;;;;;;;;;;18.31;57.14;101402.84;5069454;28;1654;-54
2021/01/18 12:01:07;;;;;;;;;;;;;;;18.28;57.46;101404.78;5066945;28;1502;-55
2021/01/18 12:03:33;;;;;;;;;;;;;;;18.24;57.17;101397.94;5067774;28;1339;-54
2021/01/18 12:05:59;;;;;;;;;;;;;;;18.26;57.10;101405.84;5066013;28;1650;-54
2021/01/18 12:08:24;;;;;;;;;;;;;;;18.29;57.98;101410.97;5065552;28;1356;-54
2021/01/18 12:10:49;;;;;;;;;;;;;;;18.28;57.48;101410.13;5060843;28;1988;-55
2021/01/18 12:13:15;;;;;;;;;;;;;;;18.27;57.74;101408.41;5061229;28;1574;-53
2021/01/18 12:15:40;;;;;;;;;;;;;;;18.26;57.95;101405.84;5063753;28;1475;-54
2021/01/18 12:18:06;;;;;;;;;;;;;;;18.28;56.94;101398.53;5067155;28;1639;-54
2021/01/18 12:20:34;;;;;;;;;;;;;;;18.28;57.62;101410.13;5064390;28;1720;-55
2021/01/18 12:22:59;;;;;;;;;;;;;;;18.34;56.81;101398.06;5070227;28;1558;-54
2021/01/18 12:25:25;;;;;;;;;;;;;;;18.38;57.12;101396.91;5066214;28;1733;-54
2021/01/18 12:27:52;;;;;;;;;;;;;;;18.50;57.33;101411.16;5062459;28;1698;-54
2021/01/18 12:30:20;;;;;;;;;;;;;;;18.60;57.15;101400.59;5063508;28;1905;-54
2021/01/18 12:32:45;;;;;;;;;;;;;;;18.62;56.64;101404.00;5062288;28;1561;-55
2021/01/18 12:35:11;;;;;;;;;;;;;;;18.63;56.32;101414.63;5065893;28;1411;-54
2021/01/18 12:37:39;;;;;;;;;;;;;;;18.61;56.49;101421.06;5068993;28;1773;-55
2021/01/18 12:40:07;;;;;;;;;;;;;;;18.53;56.99;101408.25;5068801;28;1569;-54
2021/01/18 12:42:34;;;;;;;;;;;;;;;18.51;56.51;101409.34;5067113;28;1540;-54
2021/01/18 12:45:00;;;;;;;;;;;;;;;18.54;56.76;101412.63;5065445;28;1658;-54
2021/01/18 12:47:27;;;;;;;;;;;;;;;18.55;56.97;101400.13;5067616;28;1567;-54
2021/01/18 12:49:52;;;;;;;;;;;;;;;18.55;57.29;101405.47;5062421;28;1910;-54
2021/01/18 12:52:17;;;;;;;;;;;;;;;18.55;56.72;101409.00;5067992;28;1817;-54